sensor_id;sensor_type;location;lat;lon;timestamp;P1;durP1;ratioP1;P2;durP2;ratioP2
75189;SDS011;69198;44.694;37.790;2023-07-24T00:00:07;16.23;;;10.23;;
75189;SDS011;69198;44.694;37.790;2023-07-24T00:01:08;16.15;;;10.13;;
75189;SDS011;69198;44.694;37.790;2023-07-24T00:02:09;18.50;;;10.15;;
75189;SDS011;69198;44.694;37.790;2023-07-24T00:03:10;16.13;;;9.50;;
75189;SDS011;69198;44.694;37.790;2023-07-24T00:04:11;14.82;;;9.73;;
75189;SDS011;69198;44.694;37.790;2023-07-24T00:05:12;15.13;;;9.60;;
75189;SDS011;69198;44.694;37.790;2023-07-24T00:06:13;14.65;;;9.00;;
75189;SDS011;69198;44.694;37.790;2023-07-24T00:07:14;16.48;;;9.77;;
75189;SDS011;69198;44.694;37.790;2023-07-24T00:08:15;16.10;;;9.45;;
75189;SDS011;69198;44.694;37.790;2023-07-24T00:09:16;17.20;;;9.90;;
75189;SDS011;69198;44.694;37.790;2023-07-24T00:10:17;16.33;;;9.90;;
75189;SDS011;69198;44.694;37.790;2023-07-24T00:11:18;16.60;;;9.38;;
75189;SDS011;69198;44.694;37.790;2023-07-24T00:12:19;16.33;;;10.20;;
75189;SDS011;69198;44.694;37.790;2023-07-24T00:13:20;16.95;;;10.30;;
75189;SDS011;69198;44.694;37.790;2023-07-24T00:14:21;17.60;;;10.43;;
75189;SDS011;69198;44.694;37.790;2023-07-24T00:15:22;18.38;;;9.80;;
75189;SDS011;69198;44.694;37.790;2023-07-24T00:16:23;19.48;;;10.18;;
75189;SDS011;69198;44.694;37.790;2023-07-24T00:17:24;16.65;;;9.98;;
75189;SDS011;69198;44.694;37.790;2023-07-24T00:18:25;16.35;;;9.95;;
75189;SDS011;69198;44.694;37.790;2023-07-24T00:19:26;16.13;;;9.90;;
75189;SDS011;69198;44.694;37.790;2023-07-24T00:20:27;17.38;;;10.63;;
75189;SDS011;69198;44.694;37.790;2023-07-24T00:21:28;18.00;;;10.18;;
75189;SDS011;69198;44.694;37.790;2023-07-24T00:22:29;19.33;;;9.80;;
75189;SDS011;69198;44.694;37.790;2023-07-24T00:23:30;18.63;;;10.25;;
75189;SDS011;69198;44.694;37.790;2023-07-24T00:24:31;17.38;;;10.30;;
75189;SDS011;69198;44.694;37.790;2023-07-24T00:25:32;18.65;;;9.32;;
75189;SDS011;69198;44.694;37.790;2023-07-24T00:26:33;16.10;;;9.10;;
75189;SDS011;69198;44.694;37.790;2023-07-24T00:27:34;15.57;;;8.90;;
75189;SDS011;69198;44.694;37.790;2023-07-24T00:28:35;15.95;;;9.65;;
75189;SDS011;69198;44.694;37.790;2023-07-24T00:29:36;16.70;;;9.73;;
75189;SDS011;69198;44.694;37.790;2023-07-24T00:30:38;17.02;;;9.20;;
75189;SDS011;69198;44.694;37.790;2023-07-24T00:31:39;14.20;;;8.98;;
75189;SDS011;69198;44.694;37.790;2023-07-24T00:32:42;16.02;;;9.00;;
75189;SDS011;69198;44.694;37.790;2023-07-24T00:33:43;16.33;;;9.32;;
75189;SDS011;69198;44.694;37.790;2023-07-24T00:34:45;15.40;;;8.82;;
75189;SDS011;69198;44.694;37.790;2023-07-24T00:35:46;16.08;;;8.57;;
75189;SDS011;69198;44.694;37.790;2023-07-24T00:36:47;13.50;;;8.73;;
75189;SDS011;69198;44.694;37.790;2023-07-24T00:37:48;15.50;;;8.90;;
75189;SDS011;69198;44.694;37.790;2023-07-24T00:38:49;16.77;;;9.00;;
75189;SDS011;69198;44.694;37.790;2023-07-24T00:39:51;15.68;;;8.93;;
75189;SDS011;69198;44.694;37.790;2023-07-24T00:40:52;15.30;;;8.43;;
75189;SDS011;69198;44.694;37.790;2023-07-24T00:41:53;14.43;;;8.18;;
75189;SDS011;69198;44.694;37.790;2023-07-24T00:42:55;14.55;;;8.05;;
75189;SDS011;69198;44.694;37.790;2023-07-24T00:43:56;14.77;;;8.07;;
75189;SDS011;69198;44.694;37.790;2023-07-24T00:44:57;13.93;;;7.93;;
75189;SDS011;69198;44.694;37.790;2023-07-24T00:45:58;13.15;;;6.72;;
75189;SDS011;69198;44.694;37.790;2023-07-24T00:46:59;13.23;;;6.90;;
75189;SDS011;69198;44.694;37.790;2023-07-24T00:48:01;12.23;;;6.78;;
75189;SDS011;69198;44.694;37.790;2023-07-24T00:49:02;13.68;;;7.28;;
75189;SDS011;69198;44.694;37.790;2023-07-24T00:50:06;11.73;;;6.45;;
75189;SDS011;69198;44.694;37.790;2023-07-24T00:51:08;11.75;;;6.57;;
75189;SDS011;69198;44.694;37.790;2023-07-24T00:52:10;11.35;;;6.22;;
75189;SDS011;69198;44.694;37.790;2023-07-24T00:53:12;11.88;;;6.45;;
75189;SDS011;69198;44.694;37.790;2023-07-24T00:54:14;11.27;;;5.77;;
75189;SDS011;69198;44.694;37.790;2023-07-24T00:55:18;13.82;;;6.28;;
75189;SDS011;69198;44.694;37.790;2023-07-24T00:56:19;11.15;;;6.10;;
75189;SDS011;69198;44.694;37.790;2023-07-24T00:57:20;11.10;;;6.15;;
75189;SDS011;69198;44.694;37.790;2023-07-24T00:58:22;11.40;;;6.25;;
75189;SDS011;69198;44.694;37.790;2023-07-24T00:59:23;11.65;;;6.25;;
75189;SDS011;69198;44.694;37.790;2023-07-24T01:00:24;11.90;;;6.22;;
75189;SDS011;69198;44.694;37.790;2023-07-24T01:01:25;11.77;;;6.32;;
75189;SDS011;69198;44.694;37.790;2023-07-24T01:02:27;10.45;;;5.93;;
75189;SDS011;69198;44.694;37.790;2023-07-24T01:03:31;11.85;;;6.20;;
75189;SDS011;69198;44.694;37.790;2023-07-24T01:04:34;11.77;;;6.10;;
75189;SDS011;69198;44.694;37.790;2023-07-24T01:05:35;11.52;;;6.00;;
75189;SDS011;69198;44.694;37.790;2023-07-24T01:06:36;13.00;;;6.05;;
75189;SDS011;69198;44.694;37.790;2023-07-24T01:07:37;12.95;;;6.60;;
75189;SDS011;69198;44.694;37.790;2023-07-24T01:08:38;11.68;;;6.50;;
75189;SDS011;69198;44.694;37.790;2023-07-24T01:09:39;12.95;;;6.88;;
75189;SDS011;69198;44.694;37.790;2023-07-24T01:10:40;12.82;;;6.65;;
75189;SDS011;69198;44.694;37.790;2023-07-24T01:11:44;13.13;;;7.05;;
75189;SDS011;69198;44.694;37.790;2023-07-24T01:12:53;14.32;;;6.75;;
75189;SDS011;69198;44.694;37.790;2023-07-24T01:14:08;12.73;;;6.63;;
75189;SDS011;69198;44.694;37.790;2023-07-24T01:16:45;13.48;;;7.20;;
75189;SDS011;69198;44.694;37.790;2023-07-24T01:17:49;16.10;;;7.65;;
75189;SDS011;69198;44.694;37.790;2023-07-24T01:18:55;13.23;;;7.13;;
75189;SDS011;69198;44.694;37.790;2023-07-24T01:19:58;14.15;;;7.20;;
75189;SDS011;69198;44.694;37.790;2023-07-24T01:21:03;13.23;;;7.13;;
75189;SDS011;69198;44.694;37.790;2023-07-24T01:26:15;14.57;;;7.07;;
75189;SDS011;69198;44.694;37.790;2023-07-24T01:27:23;12.97;;;6.47;;
75189;SDS011;69198;44.694;37.790;2023-07-24T01:28:25;15.88;;;7.75;;
75189;SDS011;69198;44.694;37.790;2023-07-24T01:29:27;13.95;;;7.28;;
75189;SDS011;69198;44.694;37.790;2023-07-24T01:30:28;14.23;;;7.43;;
75189;SDS011;69198;44.694;37.790;2023-07-24T01:31:29;13.77;;;7.65;;
75189;SDS011;69198;44.694;37.790;2023-07-24T01:32:29;14.77;;;7.40;;
75189;SDS011;69198;44.694;37.790;2023-07-24T01:33:31;13.20;;;7.20;;
75189;SDS011;69198;44.694;37.790;2023-07-24T01:34:34;14.63;;;7.75;;
75189;SDS011;69198;44.694;37.790;2023-07-24T01:35:35;14.10;;;7.10;;
75189;SDS011;69198;44.694;37.790;2023-07-24T01:36:38;15.45;;;7.97;;
75189;SDS011;69198;44.694;37.790;2023-07-24T01:37:39;15.73;;;7.53;;
75189;SDS011;69198;44.694;37.790;2023-07-24T01:38:42;14.05;;;7.43;;
75189;SDS011;69198;44.694;37.790;2023-07-24T01:39:44;14.68;;;7.50;;
75189;SDS011;69198;44.694;37.790;2023-07-24T01:40:45;13.93;;;7.32;;
75189;SDS011;69198;44.694;37.790;2023-07-24T01:41:47;13.90;;;7.75;;
75189;SDS011;69198;44.694;37.790;2023-07-24T01:42:48;13.63;;;7.57;;
75189;SDS011;69198;44.694;37.790;2023-07-24T01:43:50;15.98;;;7.90;;
75189;SDS011;69198;44.694;37.790;2023-07-24T01:44:52;16.15;;;8.27;;
75189;SDS011;69198;44.694;37.790;2023-07-24T01:45:53;15.07;;;8.03;;
75189;SDS011;69198;44.694;37.790;2023-07-24T01:46:55;15.40;;;8.30;;
75189;SDS011;69198;44.694;37.790;2023-07-24T01:47:56;14.77;;;7.88;;
75189;SDS011;69198;44.694;37.790;2023-07-24T01:48:56;14.35;;;7.55;;
75189;SDS011;69198;44.694;37.790;2023-07-24T01:49:57;16.08;;;8.18;;
75189;SDS011;69198;44.694;37.790;2023-07-24T01:50:59;15.45;;;8.45;;
75189;SDS011;69198;44.694;37.790;2023-07-24T01:52:00;16.73;;;8.50;;
75189;SDS011;69198;44.694;37.790;2023-07-24T01:53:02;13.90;;;8.10;;
75189;SDS011;69198;44.694;37.790;2023-07-24T01:54:03;15.25;;;7.65;;
75189;SDS011;69198;44.694;37.790;2023-07-24T01:55:05;16.45;;;8.27;;
75189;SDS011;69198;44.694;37.790;2023-07-24T01:56:06;14.75;;;7.95;;
75189;SDS011;69198;44.694;37.790;2023-07-24T01:57:07;14.85;;;8.18;;
75189;SDS011;69198;44.694;37.790;2023-07-24T01:58:08;15.77;;;8.15;;
75189;SDS011;69198;44.694;37.790;2023-07-24T01:59:09;16.42;;;8.57;;
75189;SDS011;69198;44.694;37.790;2023-07-24T02:00:10;16.63;;;8.32;;
75189;SDS011;69198;44.694;37.790;2023-07-24T02:01:12;16.52;;;8.40;;
75189;SDS011;69198;44.694;37.790;2023-07-24T02:02:14;16.07;;;8.53;;
75189;SDS011;69198;44.694;37.790;2023-07-24T02:03:15;16.13;;;8.32;;
75189;SDS011;69198;44.694;37.790;2023-07-24T02:04:19;15.18;;;8.57;;
75189;SDS011;69198;44.694;37.790;2023-07-24T02:05:23;15.43;;;7.80;;
75189;SDS011;69198;44.694;37.790;2023-07-24T02:06:24;18.08;;;8.13;;
75189;SDS011;69198;44.694;37.790;2023-07-24T02:07:25;15.07;;;8.40;;
75189;SDS011;69198;44.694;37.790;2023-07-24T02:08:26;17.45;;;8.45;;
75189;SDS011;69198;44.694;37.790;2023-07-24T02:09:27;18.13;;;8.65;;
75189;SDS011;69198;44.694;37.790;2023-07-24T02:10:28;15.27;;;8.33;;
75189;SDS011;69198;44.694;37.790;2023-07-24T02:11:29;17.65;;;8.57;;
75189;SDS011;69198;44.694;37.790;2023-07-24T02:12:30;14.95;;;8.10;;
75189;SDS011;69198;44.694;37.790;2023-07-24T02:13:31;14.88;;;8.20;;
75189;SDS011;69198;44.694;37.790;2023-07-24T02:14:32;15.65;;;7.85;;
75189;SDS011;69198;44.694;37.790;2023-07-24T02:15:33;16.77;;;8.35;;
75189;SDS011;69198;44.694;37.790;2023-07-24T02:16:35;14.35;;;8.32;;
75189;SDS011;69198;44.694;37.790;2023-07-24T02:17:36;16.25;;;8.02;;
75189;SDS011;69198;44.694;37.790;2023-07-24T02:18:41;15.73;;;8.37;;
75189;SDS011;69198;44.694;37.790;2023-07-24T02:19:43;15.20;;;7.28;;
75189;SDS011;69198;44.694;37.790;2023-07-24T02:20:48;17.17;;;8.68;;
75189;SDS011;69198;44.694;37.790;2023-07-24T02:21:51;17.00;;;8.45;;
75189;SDS011;69198;44.694;37.790;2023-07-24T02:22:52;16.90;;;8.50;;
75189;SDS011;69198;44.694;37.790;2023-07-24T02:23:53;17.52;;;8.27;;
75189;SDS011;69198;44.694;37.790;2023-07-24T02:24:54;15.10;;;8.60;;
75189;SDS011;69198;44.694;37.790;2023-07-24T02:25:57;15.50;;;8.00;;
75189;SDS011;69198;44.694;37.790;2023-07-24T02:26:58;13.97;;;7.47;;
75189;SDS011;69198;44.694;37.790;2023-07-24T02:28:00;16.13;;;8.10;;
75189;SDS011;69198;44.694;37.790;2023-07-24T02:29:01;16.08;;;8.40;;
75189;SDS011;69198;44.694;37.790;2023-07-24T02:30:03;14.88;;;7.78;;
75189;SDS011;69198;44.694;37.790;2023-07-24T02:31:04;17.30;;;8.60;;
75189;SDS011;69198;44.694;37.790;2023-07-24T02:32:05;14.63;;;8.07;;
75189;SDS011;69198;44.694;37.790;2023-07-24T02:33:06;15.60;;;7.97;;
75189;SDS011;69198;44.694;37.790;2023-07-24T02:34:08;15.05;;;8.10;;
75189;SDS011;69198;44.694;37.790;2023-07-24T02:35:09;15.93;;;8.10;;
75189;SDS011;69198;44.694;37.790;2023-07-24T02:36:10;14.93;;;7.47;;
75189;SDS011;69198;44.694;37.790;2023-07-24T02:37:12;17.15;;;7.82;;
75189;SDS011;69198;44.694;37.790;2023-07-24T02:38:13;16.83;;;8.57;;
75189;SDS011;69198;44.694;37.790;2023-07-24T02:39:14;15.10;;;8.10;;
75189;SDS011;69198;44.694;37.790;2023-07-24T02:40:15;15.07;;;8.07;;
75189;SDS011;69198;44.694;37.790;2023-07-24T02:41:16;15.93;;;8.20;;
75189;SDS011;69198;44.694;37.790;2023-07-24T02:42:17;16.08;;;8.52;;
75189;SDS011;69198;44.694;37.790;2023-07-24T02:43:18;14.30;;;7.80;;
75189;SDS011;69198;44.694;37.790;2023-07-24T02:44:19;15.87;;;7.87;;
75189;SDS011;69198;44.694;37.790;2023-07-24T02:45:20;14.95;;;7.70;;
75189;SDS011;69198;44.694;37.790;2023-07-24T02:46:21;13.88;;;7.88;;
75189;SDS011;69198;44.694;37.790;2023-07-24T02:47:25;17.15;;;8.77;;
75189;SDS011;69198;44.694;37.790;2023-07-24T02:48:26;15.52;;;8.05;;
75189;SDS011;69198;44.694;37.790;2023-07-24T02:49:27;16.90;;;7.88;;
75189;SDS011;69198;44.694;37.790;2023-07-24T02:50:29;16.85;;;8.20;;
75189;SDS011;69198;44.694;37.790;2023-07-24T02:51:30;16.73;;;7.82;;
75189;SDS011;69198;44.694;37.790;2023-07-24T02:52:31;17.42;;;7.60;;
75189;SDS011;69198;44.694;37.790;2023-07-24T02:53:32;15.53;;;8.10;;
75189;SDS011;69198;44.694;37.790;2023-07-24T02:54:33;15.57;;;8.98;;
75189;SDS011;69198;44.694;37.790;2023-07-24T02:55:34;16.92;;;8.25;;
75189;SDS011;69198;44.694;37.790;2023-07-24T02:56:35;16.17;;;8.13;;
75189;SDS011;69198;44.694;37.790;2023-07-24T02:57:36;14.20;;;8.02;;
75189;SDS011;69198;44.694;37.790;2023-07-24T02:58:37;13.82;;;7.43;;
75189;SDS011;69198;44.694;37.790;2023-07-24T02:59:38;14.60;;;7.60;;
75189;SDS011;69198;44.694;37.790;2023-07-24T03:00:39;14.73;;;7.90;;
75189;SDS011;69198;44.694;37.790;2023-07-24T03:01:40;17.20;;;7.95;;
75189;SDS011;69198;44.694;37.790;2023-07-24T03:02:41;14.80;;;7.77;;
75189;SDS011;69198;44.694;37.790;2023-07-24T03:03:42;13.75;;;7.45;;
75189;SDS011;69198;44.694;37.790;2023-07-24T03:04:43;17.92;;;8.40;;
75189;SDS011;69198;44.694;37.790;2023-07-24T03:05:44;16.40;;;8.73;;
75189;SDS011;69198;44.694;37.790;2023-07-24T03:06:45;15.02;;;7.80;;
75189;SDS011;69198;44.694;37.790;2023-07-24T03:07:46;14.00;;;7.97;;
75189;SDS011;69198;44.694;37.790;2023-07-24T03:08:47;13.45;;;7.32;;
75189;SDS011;69198;44.694;37.790;2023-07-24T03:09:48;15.23;;;8.37;;
75189;SDS011;69198;44.694;37.790;2023-07-24T03:10:51;15.02;;;7.93;;
75189;SDS011;69198;44.694;37.790;2023-07-24T03:11:52;15.30;;;7.60;;
75189;SDS011;69198;44.694;37.790;2023-07-24T03:12:53;14.38;;;7.30;;
75189;SDS011;69198;44.694;37.790;2023-07-24T03:13:54;15.05;;;7.63;;
75189;SDS011;69198;44.694;37.790;2023-07-24T03:14:55;13.13;;;7.13;;
75189;SDS011;69198;44.694;37.790;2023-07-24T03:15:57;14.40;;;7.40;;
75189;SDS011;69198;44.694;37.790;2023-07-24T03:16:58;13.73;;;7.13;;
75189;SDS011;69198;44.694;37.790;2023-07-24T03:18:00;15.27;;;7.50;;
75189;SDS011;69198;44.694;37.790;2023-07-24T03:19:00;16.85;;;7.70;;
75189;SDS011;69198;44.694;37.790;2023-07-24T03:20:35;13.43;;;7.30;;
75189;SDS011;69198;44.694;37.790;2023-07-24T03:21:29;14.43;;;7.53;;
75189;SDS011;69198;44.694;37.790;2023-07-24T03:22:30;12.90;;;7.45;;
75189;SDS011;69198;44.694;37.790;2023-07-24T03:23:31;15.88;;;7.80;;
75189;SDS011;69198;44.694;37.790;2023-07-24T03:24:32;16.10;;;7.90;;
75189;SDS011;69198;44.694;37.790;2023-07-24T03:25:34;13.10;;;7.25;;
75189;SDS011;69198;44.694;37.790;2023-07-24T03:26:36;14.60;;;7.90;;
75189;SDS011;69198;44.694;37.790;2023-07-24T03:27:37;15.35;;;8.35;;
75189;SDS011;69198;44.694;37.790;2023-07-24T03:28:40;15.27;;;7.95;;
75189;SDS011;69198;44.694;37.790;2023-07-24T03:29:41;16.77;;;7.93;;
75189;SDS011;69198;44.694;37.790;2023-07-24T03:30:42;15.45;;;8.05;;
75189;SDS011;69198;44.694;37.790;2023-07-24T03:31:43;14.18;;;7.22;;
75189;SDS011;69198;44.694;37.790;2023-07-24T03:32:44;17.70;;;8.00;;
75189;SDS011;69198;44.694;37.790;2023-07-24T03:33:45;15.00;;;8.35;;
75189;SDS011;69198;44.694;37.790;2023-07-24T03:34:46;14.07;;;7.53;;
75189;SDS011;69198;44.694;37.790;2023-07-24T03:35:47;15.73;;;7.53;;
75189;SDS011;69198;44.694;37.790;2023-07-24T03:36:48;13.90;;;7.90;;
75189;SDS011;69198;44.694;37.790;2023-07-24T03:37:50;14.35;;;7.93;;
75189;SDS011;69198;44.694;37.790;2023-07-24T03:38:51;13.80;;;7.82;;
75189;SDS011;69198;44.694;37.790;2023-07-24T03:39:52;15.02;;;8.02;;
75189;SDS011;69198;44.694;37.790;2023-07-24T03:40:53;16.10;;;8.00;;
75189;SDS011;69198;44.694;37.790;2023-07-24T03:41:54;16.15;;;7.90;;
75189;SDS011;69198;44.694;37.790;2023-07-24T03:42:55;13.57;;;6.80;;
75189;SDS011;69198;44.694;37.790;2023-07-24T03:43:56;13.93;;;7.38;;
75189;SDS011;69198;44.694;37.790;2023-07-24T03:44:57;16.52;;;8.00;;
75189;SDS011;69198;44.694;37.790;2023-07-24T03:45:58;13.88;;;7.63;;
75189;SDS011;69198;44.694;37.790;2023-07-24T03:46:59;15.07;;;7.80;;
75189;SDS011;69198;44.694;37.790;2023-07-24T03:48:00;13.52;;;7.57;;
75189;SDS011;69198;44.694;37.790;2023-07-24T03:49:01;15.95;;;7.93;;
75189;SDS011;69198;44.694;37.790;2023-07-24T03:50:02;16.27;;;6.93;;
75189;SDS011;69198;44.694;37.790;2023-07-24T03:51:04;14.38;;;7.55;;
75189;SDS011;69198;44.694;37.790;2023-07-24T03:52:05;14.68;;;7.15;;
75189;SDS011;69198;44.694;37.790;2023-07-24T03:53:06;16.30;;;7.60;;
75189;SDS011;69198;44.694;37.790;2023-07-24T03:54:06;14.63;;;6.70;;
75189;SDS011;69198;44.694;37.790;2023-07-24T03:55:08;15.82;;;7.28;;
75189;SDS011;69198;44.694;37.790;2023-07-24T03:56:09;12.75;;;6.65;;
75189;SDS011;69198;44.694;37.790;2023-07-24T03:57:10;15.70;;;7.15;;
75189;SDS011;69198;44.694;37.790;2023-07-24T03:58:11;13.67;;;7.07;;
75189;SDS011;69198;44.694;37.790;2023-07-24T03:59:12;14.20;;;6.85;;
75189;SDS011;69198;44.694;37.790;2023-07-24T04:00:13;12.25;;;6.50;;
75189;SDS011;69198;44.694;37.790;2023-07-24T04:01:14;12.73;;;6.85;;
75189;SDS011;69198;44.694;37.790;2023-07-24T04:02:15;13.65;;;6.68;;
75189;SDS011;69198;44.694;37.790;2023-07-24T04:03:16;11.75;;;5.97;;
75189;SDS011;69198;44.694;37.790;2023-07-24T04:04:17;11.88;;;5.88;;
75189;SDS011;69198;44.694;37.790;2023-07-24T04:05:18;11.73;;;5.75;;
75189;SDS011;69198;44.694;37.790;2023-07-24T04:06:19;11.13;;;5.53;;
75189;SDS011;69198;44.694;37.790;2023-07-24T04:07:20;11.18;;;6.38;;
75189;SDS011;69198;44.694;37.790;2023-07-24T04:08:21;12.73;;;5.60;;
75189;SDS011;69198;44.694;37.790;2023-07-24T04:09:22;10.48;;;5.97;;
75189;SDS011;69198;44.694;37.790;2023-07-24T04:10:23;11.77;;;5.00;;
75189;SDS011;69198;44.694;37.790;2023-07-24T04:11:25;10.10;;;5.25;;
75189;SDS011;69198;44.694;37.790;2023-07-24T04:12:26;11.63;;;5.38;;
75189;SDS011;69198;44.694;37.790;2023-07-24T04:13:29;11.00;;;5.28;;
75189;SDS011;69198;44.694;37.790;2023-07-24T04:14:30;9.60;;;4.90;;
75189;SDS011;69198;44.694;37.790;2023-07-24T04:15:31;12.00;;;5.37;;
75189;SDS011;69198;44.694;37.790;2023-07-24T04:16:32;10.30;;;5.00;;
75189;SDS011;69198;44.694;37.790;2023-07-24T04:17:33;11.23;;;5.10;;
75189;SDS011;69198;44.694;37.790;2023-07-24T04:18:36;9.15;;;4.90;;
75189;SDS011;69198;44.694;37.790;2023-07-24T04:19:37;9.45;;;4.93;;
75189;SDS011;69198;44.694;37.790;2023-07-24T04:20:38;8.80;;;4.72;;
75189;SDS011;69198;44.694;37.790;2023-07-24T04:21:39;9.25;;;4.03;;
75189;SDS011;69198;44.694;37.790;2023-07-24T04:22:40;8.70;;;4.25;;
75189;SDS011;69198;44.694;37.790;2023-07-24T04:23:41;8.73;;;4.60;;
75189;SDS011;69198;44.694;37.790;2023-07-24T04:24:42;10.85;;;4.95;;
75189;SDS011;69198;44.694;37.790;2023-07-24T04:25:43;9.95;;;4.80;;
75189;SDS011;69198;44.694;37.790;2023-07-24T04:26:44;9.55;;;4.95;;
75189;SDS011;69198;44.694;37.790;2023-07-24T04:27:45;8.50;;;3.90;;
75189;SDS011;69198;44.694;37.790;2023-07-24T04:28:46;12.02;;;4.60;;
75189;SDS011;69198;44.694;37.790;2023-07-24T04:29:47;11.05;;;4.57;;
75189;SDS011;69198;44.694;37.790;2023-07-24T04:30:48;10.15;;;4.50;;
75189;SDS011;69198;44.694;37.790;2023-07-24T04:31:49;8.80;;;4.60;;
75189;SDS011;69198;44.694;37.790;2023-07-24T04:32:50;9.13;;;4.28;;
75189;SDS011;69198;44.694;37.790;2023-07-24T04:33:52;8.85;;;4.45;;
75189;SDS011;69198;44.694;37.790;2023-07-24T04:34:53;11.32;;;4.28;;
75189;SDS011;69198;44.694;37.790;2023-07-24T04:35:55;9.02;;;4.35;;
75189;SDS011;69198;44.694;37.790;2023-07-24T04:36:56;8.82;;;4.15;;
75189;SDS011;69198;44.694;37.790;2023-07-24T04:37:57;8.70;;;4.00;;
75189;SDS011;69198;44.694;37.790;2023-07-24T04:38:58;9.68;;;4.00;;
75189;SDS011;69198;44.694;37.790;2023-07-24T04:39:59;10.20;;;5.00;;
75189;SDS011;69198;44.694;37.790;2023-07-24T04:41:00;9.43;;;4.38;;
75189;SDS011;69198;44.694;37.790;2023-07-24T04:42:05;8.05;;;4.07;;
75189;SDS011;69198;44.694;37.790;2023-07-24T04:43:06;9.20;;;4.30;;
75189;SDS011;69198;44.694;37.790;2023-07-24T04:44:07;8.25;;;3.78;;
75189;SDS011;69198;44.694;37.790;2023-07-24T04:45:08;7.07;;;3.50;;
75189;SDS011;69198;44.694;37.790;2023-07-24T04:46:10;8.95;;;4.18;;
75189;SDS011;69198;44.694;37.790;2023-07-24T04:47:10;7.55;;;3.97;;
75189;SDS011;69198;44.694;37.790;2023-07-24T04:48:12;8.07;;;4.17;;
75189;SDS011;69198;44.694;37.790;2023-07-24T04:49:12;8.30;;;4.07;;
75189;SDS011;69198;44.694;37.790;2023-07-24T04:50:14;8.63;;;4.00;;
75189;SDS011;69198;44.694;37.790;2023-07-24T04:51:15;7.72;;;3.97;;
75189;SDS011;69198;44.694;37.790;2023-07-24T04:52:16;7.75;;;4.18;;
75189;SDS011;69198;44.694;37.790;2023-07-24T04:53:17;7.28;;;3.83;;
75189;SDS011;69198;44.694;37.790;2023-07-24T04:54:18;9.30;;;4.13;;
75189;SDS011;69198;44.694;37.790;2023-07-24T04:57:10;8.05;;;3.70;;
75189;SDS011;69198;44.694;37.790;2023-07-24T04:58:11;7.93;;;3.93;;
75189;SDS011;69198;44.694;37.790;2023-07-24T04:59:12;8.57;;;4.40;;
75189;SDS011;69198;44.694;37.790;2023-07-24T05:00:13;7.78;;;3.65;;
75189;SDS011;69198;44.694;37.790;2023-07-24T05:01:15;7.38;;;3.80;;
75189;SDS011;69198;44.694;37.790;2023-07-24T05:02:15;7.93;;;3.95;;
75189;SDS011;69198;44.694;37.790;2023-07-24T05:03:17;7.63;;;3.58;;
75189;SDS011;69198;44.694;37.790;2023-07-24T05:04:18;8.00;;;3.60;;
75189;SDS011;69198;44.694;37.790;2023-07-24T05:05:19;7.88;;;4.03;;
75189;SDS011;69198;44.694;37.790;2023-07-24T05:06:20;8.70;;;3.80;;
75189;SDS011;69198;44.694;37.790;2023-07-24T05:07:21;7.68;;;4.00;;
75189;SDS011;69198;44.694;37.790;2023-07-24T05:08:22;8.82;;;3.70;;
75189;SDS011;69198;44.694;37.790;2023-07-24T05:09:23;7.15;;;3.72;;
75189;SDS011;69198;44.694;37.790;2023-07-24T05:10:24;9.20;;;4.10;;
75189;SDS011;69198;44.694;37.790;2023-07-24T05:11:25;7.55;;;3.53;;
75189;SDS011;69198;44.694;37.790;2023-07-24T05:12:26;7.93;;;3.67;;
75189;SDS011;69198;44.694;37.790;2023-07-24T05:13:27;7.33;;;4.00;;
75189;SDS011;69198;44.694;37.790;2023-07-24T05:14:28;7.45;;;3.97;;
75189;SDS011;69198;44.694;37.790;2023-07-24T05:15:29;7.20;;;3.38;;
75189;SDS011;69198;44.694;37.790;2023-07-24T05:16:30;8.07;;;3.75;;
75189;SDS011;69198;44.694;37.790;2023-07-24T05:17:31;7.18;;;3.50;;
75189;SDS011;69198;44.694;37.790;2023-07-24T05:18:32;7.95;;;3.65;;
75189;SDS011;69198;44.694;37.790;2023-07-24T05:19:33;7.37;;;3.60;;
75189;SDS011;69198;44.694;37.790;2023-07-24T05:20:34;7.20;;;3.93;;
75189;SDS011;69198;44.694;37.790;2023-07-24T05:21:35;6.88;;;3.50;;
75189;SDS011;69198;44.694;37.790;2023-07-24T05:22:36;7.30;;;3.70;;
75189;SDS011;69198;44.694;37.790;2023-07-24T05:23:37;6.95;;;3.47;;
75189;SDS011;69198;44.694;37.790;2023-07-24T05:24:38;7.32;;;3.80;;
75189;SDS011;69198;44.694;37.790;2023-07-24T05:25:39;7.82;;;3.70;;
75189;SDS011;69198;44.694;37.790;2023-07-24T05:26:40;9.07;;;3.70;;
75189;SDS011;69198;44.694;37.790;2023-07-24T05:27:41;7.20;;;3.57;;
75189;SDS011;69198;44.694;37.790;2023-07-24T05:28:42;8.52;;;3.72;;
75189;SDS011;69198;44.694;37.790;2023-07-24T05:29:44;7.57;;;3.60;;
75189;SDS011;69198;44.694;37.790;2023-07-24T05:30:45;7.13;;;3.47;;
75189;SDS011;69198;44.694;37.790;2023-07-24T05:31:46;8.18;;;3.42;;
75189;SDS011;69198;44.694;37.790;2023-07-24T05:32:47;7.57;;;3.55;;
75189;SDS011;69198;44.694;37.790;2023-07-24T05:33:48;7.55;;;3.92;;
75189;SDS011;69198;44.694;37.790;2023-07-24T05:34:49;10.57;;;3.25;;
75189;SDS011;69198;44.694;37.790;2023-07-24T05:35:50;6.50;;;2.97;;
75189;SDS011;69198;44.694;37.790;2023-07-24T05:36:51;6.80;;;3.40;;
75189;SDS011;69198;44.694;37.790;2023-07-24T05:37:52;7.32;;;3.70;;
75189;SDS011;69198;44.694;37.790;2023-07-24T05:38:53;6.70;;;3.28;;
75189;SDS011;69198;44.694;37.790;2023-07-24T05:39:54;7.35;;;3.40;;
75189;SDS011;69198;44.694;37.790;2023-07-24T05:40:59;7.22;;;3.40;;
75189;SDS011;69198;44.694;37.790;2023-07-24T05:42:02;7.43;;;3.20;;
75189;SDS011;69198;44.694;37.790;2023-07-24T05:43:03;7.28;;;3.45;;
75189;SDS011;69198;44.694;37.790;2023-07-24T05:44:04;8.00;;;3.60;;
75189;SDS011;69198;44.694;37.790;2023-07-24T05:45:06;8.43;;;3.97;;
75189;SDS011;69198;44.694;37.790;2023-07-24T05:46:09;6.82;;;3.38;;
75189;SDS011;69198;44.694;37.790;2023-07-24T05:47:14;7.95;;;3.85;;
75189;SDS011;69198;44.694;37.790;2023-07-24T05:48:15;6.70;;;3.30;;
75189;SDS011;69198;44.694;37.790;2023-07-24T05:49:16;6.82;;;3.47;;
75189;SDS011;69198;44.694;37.790;2023-07-24T05:50:17;10.05;;;4.28;;
75189;SDS011;69198;44.694;37.790;2023-07-24T05:51:23;7.13;;;3.47;;
75189;SDS011;69198;44.694;37.790;2023-07-24T05:52:25;7.22;;;3.28;;
75189;SDS011;69198;44.694;37.790;2023-07-24T05:53:25;8.05;;;3.80;;
75189;SDS011;69198;44.694;37.790;2023-07-24T05:54:27;9.17;;;3.80;;
75189;SDS011;69198;44.694;37.790;2023-07-24T05:55:27;7.25;;;3.42;;
75189;SDS011;69198;44.694;37.790;2023-07-24T05:56:29;6.72;;;3.08;;
75189;SDS011;69198;44.694;37.790;2023-07-24T05:57:31;8.15;;;3.72;;
75189;SDS011;69198;44.694;37.790;2023-07-24T05:58:32;6.55;;;3.28;;
75189;SDS011;69198;44.694;37.790;2023-07-24T05:59:34;7.95;;;3.80;;
75189;SDS011;69198;44.694;37.790;2023-07-24T06:00:34;6.88;;;3.10;;
75189;SDS011;69198;44.694;37.790;2023-07-24T06:01:36;8.20;;;3.65;;
75189;SDS011;69198;44.694;37.790;2023-07-24T06:02:37;7.03;;;3.10;;
75189;SDS011;69198;44.694;37.790;2023-07-24T06:03:38;7.55;;;3.65;;
75189;SDS011;69198;44.694;37.790;2023-07-24T06:04:39;7.05;;;3.40;;
75189;SDS011;69198;44.694;37.790;2023-07-24T06:05:40;6.85;;;3.40;;
75189;SDS011;69198;44.694;37.790;2023-07-24T06:06:41;7.20;;;3.42;;
75189;SDS011;69198;44.694;37.790;2023-07-24T06:07:43;6.75;;;3.30;;
75189;SDS011;69198;44.694;37.790;2023-07-24T06:08:44;8.50;;;3.75;;